Latest Weather Observations for Camden

IDN60901

Issued at 11:21 am EST Tuesday 21 April 2015 (issued every 10 minutes, with the page automatically refreshed every 10 minutes)

About weather observations | Map of Sydney area stations | Latest observations for Sydney area | Other Formats
Station Details ID: 068192 Name: CAMDEN AIRPORT AWS Lat: -34.04 Lon: 150.69 Height: 73.9 m
Data from the previous 72 hours. | See also: Recent months at Camden
Date/Time
EST
Tmp

°C
App
Tmp
°C
Dew
Point
°C
Rel
Hum
%
Delta-T

°C
Wind Press
QNH
hPa
Press
MSL
hPa
Rain
since
9 am
mm
Dir
 
Spd
km/h
Gust
km/h
Spd
kts
Gust
kts
21/11:10am 14.3 8.8 10.7 79 1.9 S 30 50 16 27 1021.3 1021.2 0.8
21/11:00am 14.2 9.6 11.0 81 1.7 SSW 26 41 14 22 1021.3 1021.2 0.8
21/10:30am 14.0 8.6 11.0 82 1.6 SSW 30 50 16 27 1021.4 1021.3 0.8
21/10:00am 13.4 8.4 10.9 85 1.3 S 28 48 15 26 1021.7 1021.6 0.6
21/09:59am 13.4 8.0 10.8 84 1.4 S 30 48 16 26 1021.7 1021.6 0.6
21/09:30am 13.5 9.2 10.7 83 1.5 S 24 37 13 20 1021.7 1021.6 0.2
21/09:00am 13.4 9.1 10.8 84 1.4 S 24 39 13 21 1022.0 1021.9 63.6
21/08:30am 13.5 9.6 10.9 84 1.4 S 22 37 12 20 1021.8 1021.7 62.2
21/08:00am 13.3 10.1 11.2 87 1.1 S 19 32 10 17 1022.0 1021.9 62.2
21/07:30am 13.3 9.1 11.2 87 1.1 SSW 24 33 13 18 1021.5 1021.4 61.6
21/07:00am 13.1 8.9 11.2 88 1.0 SSW 24 33 13 18 1021.3 1021.2 61.2
21/06:30am 13.3 9.1 11.2 87 1.1 S 24 35 13 19 1021.5 1021.4 60.4
21/06:00am 13.1 10.3 11.5 90 0.8 S 17 28 9 15 1021.7 1021.6 59.4
21/05:30am 12.9 9.5 11.3 90 0.8 S 20 28 11 15 1021.6 1021.5 58.6
21/05:00am 12.9 9.6 11.5 91 0.7 S 20 30 11 16 1021.8 1021.7 57.0
21/04:30am 12.8 10.0 11.4 91 0.7 S 17 28 9 15 1021.8 1021.7 55.2
21/04:00am 13.1 8.9 11.2 88 1.0 S 24 39 13 21 1021.6 1021.5 53.2
21/03:30am 13.6 10.0 11.7 88 1.0 S 22 33 12 18 1021.6 1021.5 51.6
21/03:00am 13.9 9.8 11.6 86 1.2 S 24 37 13 20 1022.0 1021.9 50.6
21/02:30am 14.0 9.9 11.5 85 1.3 S 24 41 13 22 1022.0 1021.9 50.2
21/02:00am 13.7 10.9 11.4 86 1.2 S 17 24 9 13 1022.1 1022.0 49.4
21/01:30am 14.2 10.0 11.2 82 1.6 S 24 37 13 20 1022.5 1022.4 48.6
21/01:00am 13.7 10.4 11.6 87 1.1 S 20 33 11 18 1022.7 1022.6 48.6
21/12:30am 13.6 10.4 12.0 90 0.9 S 20 33 11 18 1023.0 1022.9 48.0
 
Date/Time
EST
Tmp

°C
App
Tmp
°C
Dew
Point
°C
Rel
Hum
%
Delta-T

°C
Wind Press
QNH
hPa
Press
MSL
hPa
Rain
since
9 am
mm
Dir
 
Spd
km/h
Gust
km/h
Spd
kts
Gust
kts
20/11:30pm 13.7 10.8 12.3 91 0.8 SSW 19 24 10 13 1023.5 1023.4 45.8
20/11:00pm 13.9 10.9 12.5 91 0.8 S 20 33 11 18 1023.8 1023.7 45.4
20/10:30pm 13.9 11.0 12.8 93 0.6 S 20 28 11 15 1023.8 1023.7 45.0
20/10:00pm 14.2 11.4 13.1 93 0.6 S 20 33 11 18 1024.0 1023.9 44.6
20/09:30pm 14.3 9.9 13.0 92 0.7 S 28 43 15 23 1024.1 1024.0 44.0
20/09:04pm 14.1 10.9 13.0 93 0.6 S 22 33 12 18 1024.4 1024.3 43.2
20/09:00pm 14.0 10.0 12.9 93 0.6 S 26 48 14 26 1024.4 1024.3 43.0
20/08:52pm 14.2 9.8 12.9 92 0.7 S 28 48 15 26 1024.7 1024.6 42.6
20/08:40pm 14.2 10.2 12.9 92 0.7 SSE 26 43 14 23 1024.6 1024.5 41.6
20/08:30pm 14.1 10.5 13.0 93 0.6 SSE 24 41 13 22 1024.4 1024.3 40.4
20/08:00pm 14.0 10.7 12.9 93 0.6 S 22 35 12 19 1024.0 1023.9 38.6
20/07:30pm 14.3 11.2 13.3 94 0.6 S 22 44 12 24 1023.7 1023.6 37.0
20/07:00pm 14.1 11.3 13.1 94 0.6 S 20 30 11 16 1023.6 1023.5 34.6
20/06:47pm 14.2 11.1 13.4 95 0.4 S 22 35 12 19 1023.4 1023.3 33.4
20/06:30pm 13.8 11.2 13.2 96 0.3 SSW 19 28 10 15 1023.3 1023.2 32.6
20/06:11pm 13.7 10.3 12.6 93 0.6 SSW 22 33 12 18 1023.2 1023.1 30.8
20/05:51pm 14.0 11.0 12.7 92 0.7 S 20 33 11 18 1023.2 1023.1 29.6
20/05:30pm 14.3 11.4 13.0 92 0.7 S 20 28 11 15 1022.7 1022.6 28.4
20/05:00pm 14.7 9.2 12.6 87 1.1 S 33 57 18 31 1022.2 1022.1 27.6
20/04:30pm 14.9 10.1 12.9 88 1.1 S 30 48 16 26 1022.2 1022.1 27.2
20/04:21pm 14.9 11.0 13.3 90 0.9 S 26 41 14 22 1022.3 1022.2 27.2
20/04:00pm 14.4 12.6 13.4 94 0.6 SSW 15 30 8 16 1022.6 1022.5 26.8
20/03:52pm 14.3 12.1 13.2 93 0.6 SSW 17 32 9 17 1022.6 1022.5 26.6
20/03:30pm 14.4 11.6 13.1 92 0.7 SSW 20 33 11 18 1022.4 1022.3 26.0
20/03:11pm 14.2 11.1 13.4 95 0.4 SSW 22 35 12 19 1022.6 1022.5 25.0
20/03:09pm 14.2 11.2 13.6 96 0.3 SSW 22 35 12 19 1022.6 1022.5 25.0
20/03:00pm 13.8 11.1 13.5 98 0.2 SW 20 32 11 17 1022.3 1022.2 24.2
20/02:30pm 13.2 11.9 12.6 96 0.3 WSW 11 15 6 8 1022.9 1022.8 19.0
20/02:23pm 13.4 12.1 12.6 95 0.4 WSW 11 15 6 8 1023.1 1023.0 17.4
20/02:12pm 13.8 12.2 12.7 93 0.6 SW 13 24 7 13 1023.3 1023.2 14.4
20/02:09pm 13.8 11.8 12.7 93 0.6 SW 15 24 8 13 1023.2 1023.1 14.0
20/02:00pm 13.9 11.5 12.6 92 0.7 S 17 28 9 15 1022.8 1022.7 13.0
20/01:52pm 13.9 11.5 12.5 91 0.8 SSW 17 30 9 16 1023.0 1022.9 12.0
20/01:30pm 14.1 11.3 12.7 91 0.8 SSW 19 32 10 17 1022.8 1022.7 9.8
20/01:00pm 13.8 11.0 12.5 92 0.7 SSW 19 24 10 13 1022.8 1022.7 9.6
20/12:30pm 13.9 10.9 12.6 92 0.7 SSW 20 32 11 17 1023.4 1023.3 8.0
20/12:00pm 13.5 10.5 12.6 94 0.5 SW 20 32 11 17 1024.1 1024.0 7.6
20/11:30am 13.4 11.7 12.3 93 0.6 SSW 13 20 7 11 1025.2 1025.1 5.4
20/11:00am 13.6 10.6 12.0 90 0.9 SSW 19 28 10 15 1025.0 1024.9 3.4
20/10:30am 13.4 10.6 11.5 88 1.0 S 17 24 9 13 1025.0 1024.9 1.8
20/10:00am 13.6 10.3 10.9 84 1.4 S 19 32 10 17 1025.4 1025.3 0.8
20/09:30am 13.7 10.8 11.0 84 1.4 S 17 28 9 15 1025.4 1025.3 0.4
20/09:00am 13.8 9.5 10.6 81 1.7 S 24 35 13 19 1025.0 1024.9 4.8
20/08:30am 13.4 10.3 10.2 81 1.7 SSW 17 24 9 13 1025.2 1025.1 4.8
20/08:00am 13.0 9.6 10.4 84 1.3 SSW 19 28 10 15 1024.8 1024.7 4.8
20/07:30am 12.8 9.5 9.6 81 1.6 SSW 17 28 9 15 1025.2 1025.1 4.4
20/07:00am 12.4 9.4 9.2 81 1.6 SW 15 20 8 11 1025.2 1025.1 4.4
20/06:30am 12.5 9.8 9.0 79 1.8 SW 13 20 7 11 1025.1 1025.0 4.2
20/06:00am 12.0 9.0 9.2 83 1.4 SW 15 20 8 11 1024.8 1024.7 4.2
20/05:30am 11.7 8.3 9.3 85 1.2 WSW 17 22 9 12 1024.8 1024.7 4.2
20/05:00am 11.2 8.6 9.5 89 0.9 W 13 17 7 9 1024.9 1024.8 4.2
20/04:30am 11.0 8.0 9.4 90 0.8 WSW 15 20 8 11 1024.6 1024.5 4.2
20/04:00am 11.0 8.4 9.3 89 0.8 SW 13 17 7 9 1024.8 1024.7 4.0
20/03:30am 11.3 9.0 9.0 86 1.1 SW 11 17 6 9 1025.0 1024.9 3.6
20/03:00am 11.6 7.7 8.6 82 1.5 SSW 19 24 10 13 1024.8 1024.7 3.2
20/02:30am 12.2 8.2 8.1 76 2.0 SW 19 26 10 14 1025.3 1025.2 2.2
20/02:00am 12.2 8.6 8.5 78 1.8 SSW 17 22 9 12 1025.0 1024.9 2.2
20/01:30am 12.4 8.9 8.7 78 1.9 SSW 17 24 9 13 1025.6 1025.5 2.2
20/01:00am 12.5 9.4 9.0 79 1.8 SSW 15 20 8 11 1025.9 1025.8 2.2
20/12:30am 12.3 9.6 9.1 81 1.6 SW 13 19 7 10 1025.9 1025.8 2.2
20/12:00am 12.0 9.9 9.7 86 1.2 SW 11 13 6 7 1026.2 1026.1 2.2
 
Date/Time
EST
Tmp

°C
App
Tmp
°C
Dew
Point
°C
Rel
Hum
%
Delta-T

°C
Wind Press
QNH
hPa
Press
MSL
hPa
Rain
since
9 am
mm
Dir
 
Spd
km/h
Gust
km/h
Spd
kts
Gust
kts
19/11:30pm 11.9 10.6 10.0 88 1.0 WSW 7 11 4 6 1026.3 1026.2 2.2
19/11:00pm 12.0 9.8 9.4 84 1.3 WSW 11 13 6 7 1026.2 1026.1 1.8
19/10:30pm 12.1 9.5 9.3 83 1.4 WSW 13 17 7 9 1026.1 1026.0 1.8
19/10:00pm 11.9 10.1 9.6 86 1.2 WSW 9 13 5 7 1026.0 1025.9 1.8
19/09:30pm 11.6 9.5 9.9 89 0.9 WSW 11 15 6 8 1025.8 1025.7 1.8
19/09:00pm 11.4 9.3 9.7 89 0.9 WNW 11 15 6 8 1026.0 1025.9 1.8
19/08:30pm 11.1 9.4 9.7 91 0.7 SW 9 13 5 7 1025.8 1025.7 1.6
19/08:00pm 11.3 8.3 9.4 88 1.0 SW 15 20 8 11 1025.5 1025.4 0.4
19/07:30pm 11.5 7.7 9.2 86 1.2 SW 19 24 10 13 1025.1 1025.0 0.2
19/07:00pm 12.9 8.9 9.0 77 2.0 SW 20 30 11 16 1024.4 1024.3 0.0
19/06:30pm 14.2 9.3 8.4 68 2.9 SSW 24 33 13 18 1023.5 1023.4 0.0
19/06:00pm 15.1 12.1 9.2 68 3.0 S 15 20 8 11 1023.0 1022.9 0.0
19/05:30pm 15.5 11.8 9.4 67 3.2 SSE 19 26 10 14 1022.4 1022.3 0.0
19/05:00pm 15.9 11.5 9.1 64 3.5 SSE 22 33 12 18 1021.8 1021.7 0.0
19/04:30pm 16.5 12.0 9.9 65 3.5 SSE 24 37 13 20 1021.2 1021.1 0.0
19/04:00pm 17.2 12.7 10.1 63 3.8 SSE 24 37 13 20 1020.6 1020.5 0.0
19/03:30pm 17.9 14.0 10.8 63 3.8 SSE 22 33 12 18 1020.2 1020.0 0.0
19/03:00pm 20.1 16.7 11.3 57 4.8 SSE 20 30 11 16 1019.7 1019.5 0.0
19/02:30pm 20.4 17.9 12.4 60 4.5 SE 17 30 9 16 1019.3 1019.1 0.0
19/02:00pm 19.9 17.0 12.2 61 4.3 SSE 19 26 10 14 1019.0 1018.8 0.0
19/01:30pm 21.9 20.0 11.9 53 5.6 SSE 13 24 7 13 1018.6 1018.4 0.0
19/01:00pm 22.1 20.4 8.2 41 7.3 SW 7 15 4 8 1018.8 1018.6 0.0
19/12:30pm 21.9 20.1 8.1 41 7.3 SW 7 13 4 7 1018.9 1018.7 0.0
19/12:00pm 22.5 20.1 10.0 45 6.8 WSW 13 20 7 11 1019.2 1019.0 0.0
19/11:30am 22.0 18.4 8.2 41 7.3 WSW 17 28 9 15 1019.2 1019.0 0.0
19/11:00am 21.5 18.7 10.0 48 6.2 SW 15 20 8 11 1019.4 1019.2 0.0
19/10:30am 20.8 17.0 9.7 49 6.0 SW 20 32 11 17 1019.1 1018.9 0.0
19/10:00am 20.0 16.1 9.3 50 5.7 WSW 20 28 11 15 1019.4 1019.2 0.0
19/09:30am 19.6 16.0 9.8 53 5.2 WSW 19 30 10 16 1019.2 1019.0 0.0
19/09:00am 18.9 16.4 9.7 55 4.9 SW 13 20 7 11 1019.2 1019.0 8.2
19/08:30am 18.3 16.8 10.4 60 4.2 SW 9 15 5 8 1018.8 1018.6 8.2
19/08:00am 17.3 13.6 10.2 63 3.8 WSW 20 26 11 14 1018.2 1018.0 8.2
19/07:30am 16.4 15.2 11.6 73 2.6 W 9 13 5 7 1017.8 1017.6 8.2
19/07:00am 15.9 14.6 12.5 80 1.9 SW 11 17 6 9 1017.0 1016.8 8.2
19/06:43am 15.7 14.4 13.7 88 1.1 W 13 19 7 10 1016.5 1016.3 8.2
19/06:30am 14.5 14.7 14.3 99 0.1 WNW 6 19 3 10 1016.4 1016.2 8.2
19/06:00am 14.9 16.4 14.7 99 0.1 CALM 0 0 0 0 1015.7 1015.5 8.2
19/05:30am 15.2 16.8 15.0 99 0.1 CALM 0 6 0 3 1015.3 1015.2 8.2
19/05:16am 15.2 16.8 15.0 99 0.1 CALM 0 0 0 0 1015.3 1015.2 8.2
19/05:00am 15.7 17.5 15.5 99 0.1 CALM 0 0 0 0 1015.1 1015.0 8.2
19/04:30am 16.1 18.1 15.9 99 0.1 CALM 0 0 0 0 1014.6 1014.5 8.2
19/04:00am 16.3 17.6 16.1 99 0.1 N 4 9 2 5 1014.2 1014.1 8.2
19/03:47am 16.4 18.5 16.2 99 0.1 CALM 0 0 0 0 1014.0 1013.9 8.2
19/03:44am 16.5 18.6 16.3 99 0.1 CALM 0 0 0 0 1014.0 1013.9 8.2
19/03:30am 16.6 18.8 16.4 99 0.1 CALM 0 0 0 0 1013.9 1013.8 8.2
19/03:00am 16.7 18.9 16.5 99 0.1 CALM 0 0 0 0 1013.8 1013.7 8.0
19/02:59am 16.7 18.9 16.5 99 0.1 CALM 0 0 0 0 1013.9 1013.8 8.0
19/02:30am 17.0 19.3 16.8 99 0.1 CALM 0 0 0 0 1014.1 1014.0 8.0
19/02:19am 17.0 19.3 16.8 99 0.1 CALM 0 0 0 0 1014.0 1013.9 8.0
19/02:00am 17.1 19.5 16.9 99 0.1 CALM 0 0 0 0 1014.0 1013.9 8.0
19/01:58am 17.1 19.5 16.9 99 0.1 CALM 0 0 0 0 1014.0 1013.9 8.0
19/01:48am 17.2 19.2 17.0 99 0.1 SSE 2 6 1 3 1013.6 1013.5 8.0
19/01:35am 17.3 19.3 17.0 98 0.2 ENE 2 7 1 4 1013.9 1013.8 8.0
19/01:30am 17.4 19.8 17.1 98 0.2 CALM 0 0 0 0 1014.1 1014.0 8.0
19/01:00am 17.8 20.4 17.6 99 0.1 CALM 0 0 0 0 1014.6 1014.5 8.0
19/12:30am 17.8 20.1 17.6 99 0.1 NW 2 7 1 4 1015.1 1015.0 7.8
19/12:00am 17.8 19.3 17.6 99 0.1 N 6 7 3 4 1014.8 1014.7 7.6
 
Date/Time
EST
Tmp

°C
App
Tmp
°C
Dew
Point
°C
Rel
Hum
%
Delta-T

°C
Wind Press
QNH
hPa
Press
MSL
hPa
Rain
since
9 am
mm
Dir
 
Spd
km/h
Gust
km/h
Spd
kts
Gust
kts
18/11:30pm 17.6 19.7 17.3 98 0.2 W 2 9 1 5 1014.9 1014.8 7.2
18/11:00pm 17.5 19.9 16.9 96 0.4 CALM 0 0 0 0 1014.9 1014.8 6.4
18/10:30pm 17.5 19.4 16.7 95 0.5 ESE 2 7 1 4 1015.2 1015.1 5.2
18/10:08pm 17.8 19.7 16.8 94 0.6 S 2 7 1 4 1015.0 1014.9 4.6
18/10:00pm 17.8 18.9 16.7 93 0.7 SSE 6 7 3 4 1015.1 1015.0 4.2
18/09:48pm 17.8 18.9 16.5 92 0.8 SE 6 9 3 5 1015.0 1014.9 3.6
18/09:47pm 17.8 18.9 16.5 92 0.8 SE 6 9 3 5 1015.0 1014.9 3.4
18/09:30pm 18.4 20.7 16.7 90 1.0 CALM 0 6 0 3 1015.1 1015.0 2.2
18/09:29pm 18.4 20.7 16.7 90 1.0 CALM 0 4 0 2 1015.2 1015.1 2.2
18/09:00pm 18.9 20.0 16.7 87 1.3 S 6 9 3 5 1014.8 1014.7 1.4
18/08:30pm 19.8 19.9 17.4 86 1.5 NW 13 26 7 14 1014.8 1014.7 0.6
18/08:00pm 20.7 22.7 16.1 75 2.8 CALM 0 0 0 0 1013.5 1013.4 0.0
18/07:30pm 21.3 21.7 16.3 73 3.0 NNE 9 11 5 6 1013.4 1013.3 0.0
18/07:00pm 21.5 21.5 16.2 72 3.2 N 11 13 6 7 1013.2 1013.1 0.0
18/06:30pm 22.0 21.9 16.1 69 3.6 N 11 15 6 8 1013.3 1013.2 0.0
18/06:00pm 22.5 22.0 15.8 66 4.0 NNE 13 17 7 9 1013.0 1012.9 0.0
18/05:30pm 22.8 21.9 15.9 65 4.2 N 15 20 8 11 1012.6 1012.5 0.0
18/05:00pm 23.0 22.6 16.3 66 4.1 N 13 17 7 9 1012.7 1012.6 0.0
18/04:30pm 23.8 22.1 15.8 61 4.9 N 19 24 10 13 1012.7 1012.6 0.0
18/04:00pm 24.3 23.1 16.0 60 5.1 N 17 24 9 13 1013.0 1012.9 0.0
18/03:30pm 24.4 23.8 16.6 61 4.8 N 15 20 8 11 1013.1 1013.0 0.0
18/03:00pm 24.8 23.4 16.5 60 5.1 NNE 19 24 10 13 1013.3 1013.2 0.0
18/02:30pm 25.5 24.4 16.4 57 5.6 NNE 17 20 9 11 1013.5 1013.4 0.0
18/02:00pm 25.9 27.3 17.3 59 5.4 N 6 9 3 5 1013.7 1013.6 0.0
18/01:30pm 25.9 27.0 17.0 58 5.5 NNW 7 9 4 5 1013.9 1013.8 0.0
18/01:00pm 25.8 26.9 17.2 59 5.4 N 7 11 4 6 1014.1 1014.0 0.0
18/12:30pm 26.0 29.0 19.2 66 4.4 SW 2 9 1 5 1014.6 1014.5 0.0
18/12:00pm 24.8 28.2 19.4 72 3.5 CALM 0 7 0 4 1015.5 1015.3 0.0
18/11:30am 23.5 26.5 18.4 73 3.2 CALM 0 6 0 3 1016.2 1016.0 0.0

Latest Capital City Observations: Canberra | Sydney | Melbourne | Brisbane | Adelaide | Perth | Hobart | Darwin

Other Formats:

Comma delimited format used in spreadsheet applications
http://www.bom.gov.au/fwo/IDN60901/IDN60901.94755.axf

JavaScript Object Notation format (JSON) in row-major order
http://www.bom.gov.au/fwo/IDN60901/IDN60901.94755.json